Time;durP1;ratioP1;P1;durP2;ratioP2;P2;SDS_P1;SDS_P2;PMS_P1;PMS_P2;Temp;Humidity;BMP_temperature;BMP_pressure;BME280_temperature;BME280_humidity;BME280_pressure;Samples;Min_cycle;Max_cycle;Signal;HPM_P1;HPM_P2
2023/03/06 00:00:48;;;;;;;11.05;1.30;;;2.50;99.90;;;;;;4985795;28;20058;-77
2023/03/06 00:03:13;;;;;;;9.25;1.38;;;2.60;99.90;;;;;;4971030;28;20153;-82
2023/03/06 00:05:39;;;;;;;3.97;1.00;;;2.60;99.90;;;;;;4953562;28;20121;-85
2023/03/06 00:08:05;;;;;;;6.43;1.20;;;2.60;99.90;;;;;;4970118;28;20069;-85
2023/03/06 00:10:32;;;;;;;4.95;1.15;;;2.70;99.90;;;;;;4990621;28;20049;-80
2023/03/06 00:13:01;;;;;;;3.13;0.90;;;2.70;99.90;;;;;;4991021;28;20053;-80
2023/03/06 00:15:27;;;;;;;5.30;0.90;;;2.60;99.90;;;;;;4991810;28;20057;-86
2023/03/06 00:17:54;;;;;;;2.58;1.00;;;2.60;99.90;;;;;;4991379;28;20046;-81
2023/03/06 00:20:20;;;;;;;5.35;1.02;;;2.60;99.90;;;;;;4990378;28;20057;-80
2023/03/06 00:22:46;;;;;;;4.45;0.85;;;2.50;99.90;;;;;;4972653;28;20061;-79
2023/03/06 00:25:14;;;;;;;4.65;0.82;;;2.50;99.90;;;;;;4973813;28;20042;-85
2023/03/06 00:27:40;;;;;;;7.07;1.25;;;2.50;99.90;;;;;;4990265;28;20133;-85
2023/03/06 00:30:07;;;;;;;5.78;0.95;;;2.50;99.90;;;;;;5005494;28;20133;-82
2023/03/06 00:32:33;;;;;;;2.35;0.80;;;2.50;99.90;;;;;;4972670;28;20120;-86
2023/03/06 00:34:58;;;;;;;4.90;1.00;;;2.40;99.90;;;;;;4973838;28;20413;-81
2023/03/06 00:37:24;;;;;;;7.10;0.90;;;2.50;99.90;;;;;;4990610;28;20458;-82
2023/03/06 00:39:50;;;;;;;4.70;1.10;;;2.40;99.90;;;;;;4990502;28;20121;-81
2023/03/06 00:42:17;;;;;;;4.03;1.00;;;2.40;99.90;;;;;;4990006;28;20120;-81
2023/03/06 00:44:43;;;;;;;4.32;0.80;;;2.50;99.90;;;;;;4972215;28;20050;-84
2023/03/06 00:47:09;;;;;;;5.18;1.30;;;2.50;99.90;;;;;;4973217;28;20046;-83
2023/03/06 00:49:35;;;;;;;9.15;1.10;;;2.50;99.90;;;;;;5004831;28;20054;-86
2023/03/06 00:52:01;;;;;;;5.10;1.20;;;3.30;99.90;;;;;;4989898;28;20406;-79
2023/03/06 00:54:26;;;;;;;7.60;1.40;;;2.50;99.90;;;;;;4972675;28;20089;-81
2023/03/06 00:56:52;;;;;;;7.10;1.25;;;2.50;99.90;;;;;;4994634;28;20441;-80
2023/03/06 00:59:18;;;;;;;1.80;0.90;;;2.50;99.90;;;;;;5009518;28;20053;-81
2023/03/06 01:01:43;;;;;;;7.90;1.25;;;2.50;99.90;;;;;;5009439;28;20087;-85
2023/03/06 01:04:09;;;;;;;2.97;1.25;;;2.50;99.90;;;;;;5009404;28;20042;-84
2023/03/06 01:06:35;;;;;;;4.40;1.50;;;2.50;99.90;;;;;;4990763;28;20821;-82
2023/03/06 01:09:01;;;;;;;4.38;1.00;;;2.40;99.90;;;;;;5012652;28;20507;-87
2023/03/06 01:11:27;;;;;;;3.17;1.00;;;2.40;99.90;;;;;;5013167;28;20493;-81
2023/03/06 01:13:52;;;;;;;4.32;1.00;;;2.40;99.90;;;;;;4995420;28;20044;-80
2023/03/06 01:16:20;;;;;;;6.43;1.50;;;2.30;99.90;;;;;;5012967;28;20045;-81
2023/03/06 01:18:45;;;;;;;2.83;1.25;;;2.40;99.90;;;;;;5010965;28;20074;-81
2023/03/06 01:21:12;;;;;;;5.50;1.70;;;2.30;99.90;;;;;;5012582;28;20112;-81
2023/03/06 01:23:38;;;;;;;2.92;1.10;;;2.40;99.90;;;;;;5012878;28;20052;-84
2023/03/06 01:26:04;;;;;;;7.30;1.75;;;2.40;99.90;;;;;;5012891;28;20496;-89
2023/03/06 01:28:30;;;;;;;4.63;1.00;;;2.40;99.90;;;;;;5011198;28;20798;-87
2023/03/06 01:30:57;;;;;;;5.28;1.40;;;2.40;99.90;;;;;;5012884;28;20061;-84
2023/03/06 01:33:22;;;;;;;6.53;1.27;;;2.40;99.90;;;;;;5012131;28;20071;-87
2023/03/06 01:35:48;;;;;;;5.63;1.35;;;2.40;99.90;;;;;;5012573;28;20479;-83
2023/03/06 01:38:14;;;;;;;4.50;1.00;;;2.40;99.90;;;;;;4995077;28;20056;-89
2023/03/06 01:40:39;;;;;;;6.70;1.65;;;2.50;99.90;;;;;;5010648;28;20050;-86
2023/03/06 01:43:25;;;;;;;4.43;1.08;;;2.50;99.90;;;;;;4994840;28;20107;-82
2023/03/06 01:45:51;;;;;;;5.53;1.30;;;2.50;99.90;;;;;;5012405;28;20053;-85
2023/03/06 01:48:22;;;;;;;3.38;1.08;;;2.50;99.90;;;;;;4994540;28;20544;-85
2023/03/06 01:50:51;;;;;;;5.03;1.45;;;2.50;99.90;;;;;;5010096;28;20088;-84
2023/03/06 01:53:18;;;;;;;6.32;1.40;;;2.50;99.90;;;;;;5012577;28;20042;-81
2023/03/06 01:55:44;;;;;;;4.18;1.20;;;2.50;99.90;;;;;;5012415;28;20497;-88
2023/03/06 01:58:14;;;;;;;5.72;1.45;;;2.50;99.90;;;;;;5012296;28;20046;-84
2023/03/06 02:00:40;;;;;;;3.33;1.00;;;2.40;99.90;;;;;;5010636;28;20037;-85
2023/03/06 02:03:13;;;;;;;2.67;0.93;;;2.40;99.90;;;;;;4994264;28;20638;-85
2023/03/06 02:05:40;;;;;;;3.67;0.80;;;2.40;99.90;;;;;;4994619;28;20072;-84
2023/03/06 02:08:06;;;;;;;3.55;1.10;;;2.40;99.90;;;;;;5012001;28;20095;-86
2023/03/06 02:10:33;;;;;;;5.38;1.10;;;2.40;99.90;;;;;;5009057;28;20673;-86
2023/03/06 02:12:59;;;;;;;4.70;1.48;;;2.40;99.90;;;;;;5012014;28;20054;-86
2023/03/06 02:15:27;;;;;;;2.42;0.70;;;2.30;99.90;;;;;;5012122;28;20041;-89
2023/03/06 02:17:53;;;;;;;3.72;1.00;;;2.30;99.90;;;;;;5011086;28;20054;-86
2023/03/06 02:20:38;;;;;;;2.95;1.00;;;2.30;99.90;;;;;;4986244;28;20066;-83
2023/03/06 02:23:14;;;;;;;3.85;0.90;;;2.30;99.90;;;;;;4955607;28;20136;-87
2023/03/06 02:25:41;;;;;;;4.82;1.10;;;2.30;99.90;;;;;;4955533;28;20410;-81
2023/03/06 02:28:10;;;;;;;2.50;0.93;;;2.30;99.90;;;;;;4955442;28;20565;-87
2023/03/06 02:30:37;;;;;;;1.50;0.82;;;2.40;99.90;;;;;;4956024;28;20054;-85
2023/03/06 02:33:04;;;;;;;3.13;0.98;;;2.30;99.90;;;;;;4956890;28;20051;-84
2023/03/06 02:35:33;;;;;;;4.35;1.17;;;2.30;99.90;;;;;;4935626;29;20054;-87
2023/03/06 02:38:03;;;;;;;2.92;0.95;;;2.30;99.90;;;;;;4953359;29;20051;-84
2023/03/06 02:40:29;;;;;;;3.28;0.70;;;2.30;99.90;;;;;;4935877;29;20062;-85
2023/03/06 02:42:57;;;;;;;0.50;0.40;;;2.30;99.90;;;;;;4984290;28;20051;-85
2023/03/06 02:45:29;;;;;;;1.60;0.60;;;2.30;99.90;;;;;;4987406;28;20494;-85
2023/03/06 02:47:54;;;;;;;0.85;0.40;;;2.20;99.90;;;;;;4972370;28;20047;-84
2023/03/06 02:50:20;;;;;;;1.15;0.50;;;2.20;99.90;;;;;;4973264;28;20038;-83
2023/03/06 02:52:45;;;;;;;2.30;0.70;;;2.10;99.90;;;;;;4955007;28;20051;-84
2023/03/06 02:55:11;;;;;;;0.85;0.50;;;2.10;99.90;;;;;;4972417;28;20046;-83
2023/03/06 02:57:37;;;;;;;1.55;0.68;;;2.00;99.90;;;;;;4955862;28;20446;-86
2023/03/06 03:00:03;;;;;;;1.88;0.60;;;2.00;99.90;;;;;;4951666;28;20079;-84
2023/03/06 03:02:29;;;;;;;1.02;0.60;;;1.90;99.90;;;;;;4970224;28;20485;-83
2023/03/06 03:04:55;;;;;;;1.00;0.70;;;1.90;99.90;;;;;;4954640;28;20054;-84
2023/03/06 03:07:20;;;;;;;1.33;0.75;;;1.90;99.90;;;;;;4972441;28;20461;-85
2023/03/06 03:09:46;;;;;;;1.00;0.50;;;1.80;99.90;;;;;;4971945;28;20486;-82
2023/03/06 03:12:11;;;;;;;1.42;0.60;;;1.80;99.90;;;;;;4955474;28;20082;-84
2023/03/06 03:14:37;;;;;;;1.40;0.50;;;1.80;99.90;;;;;;4979264;28;20089;-85
2023/03/06 03:17:03;;;;;;;0.80;0.50;;;1.80;99.90;;;;;;4973701;28;20459;-84
2023/03/06 03:19:28;;;;;;;1.10;0.45;;;1.80;99.90;;;;;;4991041;28;20038;-81
2023/03/06 03:21:54;;;;;;;1.42;0.52;;;1.80;99.90;;;;;;4955820;28;20157;-80
2023/03/06 03:24:20;;;;;;;1.15;0.57;;;1.70;99.90;;;;;;4991139;28;20050;-81
2023/03/06 03:26:45;;;;;;;0.90;0.50;;;1.70;99.90;;;;;;4991094;28;20043;-83
2023/03/06 03:29:11;;;;;;;2.28;0.68;;;1.70;99.90;;;;;;4990257;28;20409;-84
2023/03/06 03:31:36;;;;;;;1.02;0.50;;;2.50;99.90;;;;;;4990621;28;20042;-84
2023/03/06 03:34:02;;;;;;;0.88;0.55;;;1.60;99.90;;;;;;4991778;28;20117;-82
2023/03/06 03:36:28;;;;;;;1.15;0.50;;;1.60;99.90;;;;;;4973472;28;20141;-80
2023/03/06 03:38:54;;;;;;;2.63;0.65;;;2.50;99.90;;;;;;4973095;28;20121;-84
2023/03/06 03:41:20;;;;;;;2.75;0.60;;;1.60;99.90;;;;;;5005388;28;20058;-83
2023/03/06 03:43:46;;;;;;;0.88;0.50;;;1.50;99.90;;;;;;5003976;28;20054;-84
2023/03/06 03:46:11;;;;;;;1.20;0.68;;;1.50;99.90;;;;;;5002108;28;20120;-86
2023/03/06 03:48:37;;;;;;;0.55;0.47;;;1.50;99.90;;;;;;4993666;28;20128;-84
2023/03/06 03:51:11;;;;;;;1.00;0.60;;;2.10;99.90;;;;;;5009789;28;20041;-85
2023/03/06 03:53:37;;;;;;;1.42;0.52;;;1.50;99.90;;;;;;5006525;28;20486;-82
2023/03/06 03:56:03;;;;;;;0.73;0.50;;;1.50;99.90;;;;;;4992929;28;20051;-85
2023/03/06 03:58:29;;;;;;;1.92;0.77;;;1.50;99.90;;;;;;5009942;28;20058;-83
2023/03/06 04:00:55;;;;;;;3.92;0.70;;;1.50;99.90;;;;;;4992360;28;20054;-85
2023/03/06 04:03:20;;;;;;;1.50;0.70;;;1.40;99.90;;;;;;5010152;28;20124;-85
2023/03/06 04:05:46;;;;;;;2.38;0.90;;;1.40;99.90;;;;;;4977444;28;20683;-83
2023/03/06 04:08:12;;;;;;;4.03;0.88;;;1.40;99.90;;;;;;5004991;28;20120;-83
2023/03/06 04:10:38;;;;;;;2.05;0.80;;;1.40;99.90;;;;;;4991492;28;20406;-81
2023/03/06 04:13:04;;;;;;;2.00;0.95;;;1.30;99.90;;;;;;4990483;28;20046;-81
2023/03/06 04:15:31;;;;;;;1.55;0.70;;;1.30;99.90;;;;;;4991152;28;20431;-84
2023/03/06 04:17:57;;;;;;;1.77;0.80;;;1.30;99.90;;;;;;4990736;28;20057;-85
2023/03/06 04:20:22;;;;;;;2.38;0.85;;;1.30;99.90;;;;;;4990171;28;20039;-83
2023/03/06 04:22:48;;;;;;;4.20;0.80;;;1.20;99.90;;;;;;4990063;28;20066;-84
2023/03/06 04:25:14;;;;;;;2.20;0.80;;;1.20;99.90;;;;;;4991121;28;20054;-83
2023/03/06 04:27:39;;;;;;;1.52;0.75;;;1.20;99.90;;;;;;5003061;28;20149;-83
2023/03/06 04:30:06;;;;;;;1.17;0.63;;;1.20;99.90;;;;;;4972687;28;20129;-86
2023/03/06 04:32:32;;;;;;;1.60;1.20;;;1.10;99.90;;;;;;4990430;28;20054;-81
2023/03/06 04:34:57;;;;;;;2.80;0.82;;;1.20;99.90;;;;;;4995058;28;20588;-80
2023/03/06 04:37:25;;;;;;;1.58;0.90;;;1.10;99.90;;;;;;4995134;28;20501;-85
2023/03/06 04:39:51;;;;;;;1.67;0.90;;;1.10;99.90;;;;;;5009580;28;20055;-86
2023/03/06 04:42:17;;;;;;;1.88;0.80;;;1.10;99.90;;;;;;5012241;28;20053;-85
2023/03/06 04:44:43;;;;;;;2.97;0.88;;;1.00;99.90;;;;;;5011063;28;20042;-85
2023/03/06 04:47:09;;;;;;;2.30;1.00;;;1.00;99.90;;;;;;4973497;28;20145;-86
2023/03/06 04:49:35;;;;;;;1.65;0.77;;;1.00;99.90;;;;;;4974319;28;20051;-82
2023/03/06 04:52:01;;;;;;;1.35;0.73;;;1.00;99.90;;;;;;4963567;28;20049;-86
2023/03/06 04:54:26;;;;;;;1.95;0.80;;;1.50;99.90;;;;;;4993624;28;20042;-85
2023/03/06 04:56:52;;;;;;;1.52;0.93;;;1.00;99.90;;;;;;5009116;28;20054;-82
2023/03/06 04:59:17;;;;;;;2.30;1.00;;;1.00;99.90;;;;;;4992076;28;20054;-81
2023/03/06 05:01:43;;;;;;;2.00;0.80;;;1.00;99.90;;;;;;4993807;28;20778;-84
2023/03/06 05:04:09;;;;;;;1.23;0.70;;;0.90;99.90;;;;;;4999394;28;20041;-86
2023/03/06 05:06:34;;;;;;;1.65;0.93;;;0.90;99.90;;;;;;4976165;28;20051;-86
2023/03/06 05:09:00;;;;;;;3.15;1.05;;;0.90;99.90;;;;;;4976772;28;20118;-80
2023/03/06 05:11:26;;;;;;;2.30;1.00;;;0.90;99.90;;;;;;4993610;28;20046;-81
2023/03/06 05:13:51;;;;;;;1.60;0.90;;;0.90;99.90;;;;;;4993664;28;20042;-82
2023/03/06 05:16:17;;;;;;;2.25;1.00;;;0.90;99.90;;;;;;5008721;28;20135;-87
2023/03/06 05:18:43;;;;;;;1.23;0.77;;;0.80;99.90;;;;;;4994919;28;20113;-87
2023/03/06 05:21:08;;;;;;;3.20;0.90;;;0.80;99.90;;;;;;4993039;28;20054;-83
2023/03/06 05:23:37;;;;;;;3.22;1.00;;;0.80;99.90;;;;;;4993044;28;20050;-86
2023/03/06 05:26:08;;;;;;;1.52;0.77;;;0.80;99.90;;;;;;4993261;28;20128;-81
2023/03/06 05:28:34;;;;;;;2.13;1.10;;;0.80;99.90;;;;;;4975295;28;20046;-81
2023/03/06 05:31:00;;;;;;;4.75;1.05;;;0.80;99.90;;;;;;4992840;28;20081;-80
2023/03/06 05:33:26;;;;;;;1.75;1.05;;;0.80;99.90;;;;;;4999561;28;20046;-86
2023/03/06 05:35:51;;;;;;;3.42;1.08;;;0.80;99.90;;;;;;4992763;28;20884;-83
2023/03/06 05:38:17;;;;;;;4.25;0.95;;;0.80;99.90;;;;;;4995878;28;20042;-79
2023/03/06 05:40:44;;;;;;;2.20;1.10;;;0.80;99.90;;;;;;4975506;28;20050;-81
2023/03/06 05:43:11;;;;;;;3.33;0.93;;;0.70;99.90;;;;;;4992996;28;20512;-86
2023/03/06 05:45:38;;;;;;;2.65;1.33;;;0.70;99.90;;;;;;4975736;28;20065;-85
2023/03/06 05:48:04;;;;;;;2.50;1.38;;;0.80;99.90;;;;;;4975152;28;20093;-85
2023/03/06 05:50:30;;;;;;;4.10;1.60;;;0.70;99.90;;;;;;4975298;28;20058;-81
2023/03/06 05:52:55;;;;;;;2.30;1.25;;;0.70;99.90;;;;;;4991987;28;20049;-86
2023/03/06 05:55:23;;;;;;;3.03;1.58;;;0.70;99.90;;;;;;4984977;28;20477;-85
2023/03/06 05:57:49;;;;;;;2.28;1.30;;;1.10;99.90;;;;;;4991724;28;20513;-81
2023/03/06 06:00:15;;;;;;;3.70;1.42;;;1.80;99.90;;;;;;4992925;28;20042;-81
2023/03/06 06:02:42;;;;;;;3.47;1.70;;;0.60;99.90;;;;;;4992743;28;20042;-87
2023/03/06 06:05:08;;;;;;;3.33;1.27;;;0.70;99.90;;;;;;4983329;28;20054;-83
2023/03/06 06:07:34;;;;;;;3.05;1.35;;;0.60;99.90;;;;;;4991022;28;20495;-81
2023/03/06 06:10:00;;;;;;;2.47;1.30;;;0.60;99.90;;;;;;4997119;28;20126;-81
2023/03/06 06:12:26;;;;;;;3.38;1.10;;;0.50;99.90;;;;;;4975363;28;20542;-81
2023/03/06 06:14:52;;;;;;;2.15;1.30;;;0.50;99.90;;;;;;4992552;28;20042;-81
2023/03/06 06:17:18;;;;;;;4.10;1.10;;;0.50;99.90;;;;;;4992176;28;20054;-81
2023/03/06 06:19:44;;;;;;;2.30;1.08;;;0.40;99.90;;;;;;4974364;28;20042;-84
2023/03/06 06:22:10;;;;;;;2.08;1.08;;;0.30;99.90;;;;;;5004126;28;20120;-87
2023/03/06 06:24:35;;;;;;;7.72;1.33;;;0.30;99.90;;;;;;5011464;28;20498;-88
2023/03/06 06:27:01;;;;;;;6.30;2.30;;;0.30;99.90;;;;;;5008425;28;20049;-87
2023/03/06 06:29:28;;;;;;;4.20;2.00;;;0.20;99.90;;;;;;4991899;28;20038;-82
2023/03/06 06:31:55;;;;;;;3.47;2.10;;;0.20;99.90;;;;;;4974226;28;20050;-82
2023/03/06 06:34:22;;;;;;;4.20;2.42;;;0.20;99.90;;;;;;5006873;28;20061;-81
2023/03/06 06:36:48;;;;;;;3.20;1.98;;;0.10;99.90;;;;;;5006917;28;20058;-83
2023/03/06 06:39:16;;;;;;;2.88;1.75;;;0.10;99.90;;;;;;4991868;28;20410;-83
2023/03/06 06:41:42;;;;;;;3.83;1.67;;;0.10;99.90;;;;;;5000148;28;20529;-86
2023/03/06 06:44:13;;;;;;;4.10;2.40;;;1.00;99.90;;;;;;5010261;28;20062;-83
2023/03/06 06:46:39;;;;;;;5.75;2.28;;;0.00;99.90;;;;;;4992217;28;20094;-79
2023/03/06 06:49:05;;;;;;;5.85;2.47;;;0.00;99.90;;;;;;4991988;28;20082;-79
2023/03/06 06:51:34;;;;;;;3.00;1.48;;;0.00;99.90;;;;;;4991495;28;20509;-78
2023/03/06 06:54:00;;;;;;;3.05;1.77;;;0.00;99.90;;;;;;4991530;28;20046;-86
2023/03/06 06:56:26;;;;;;;3.85;1.92;;;0.00;99.90;;;;;;4991482;28;20382;-85
2023/03/06 06:58:52;;;;;;;3.83;2.17;;;0.00;99.90;;;;;;4974065;28;20035;-86
2023/03/06 07:01:18;;;;;;;6.90;2.58;;;0.10;99.90;;;;;;4990761;28;20511;-77
2023/03/06 07:03:44;;;;;;;5.30;3.08;;;0.10;99.90;;;;;;4991604;28;20074;-80
2023/03/06 07:06:10;;;;;;;5.30;2.97;;;0.10;99.90;;;;;;4973895;28;20058;-81
2023/03/06 07:08:35;;;;;;;5.30;2.78;;;0.10;99.90;;;;;;4991377;28;20100;-84
2023/03/06 07:11:12;;;;;;;6.85;2.70;;;0.10;99.90;;;;;;4991542;28;20039;-84
2023/03/06 07:13:38;;;;;;;5.90;3.53;;;0.10;99.90;;;;;;4991130;28;20149;-80
2023/03/06 07:16:04;;;;;;;6.30;3.72;;;0.20;99.90;;;;;;4991412;28;20109;-78
2023/03/06 07:18:29;;;;;;;4.85;2.88;;;0.20;99.90;;;;;;4992220;28;20600;-79
2023/03/06 07:20:56;;;;;;;7.13;2.90;;;0.20;99.90;;;;;;4991975;28;20106;-80
2023/03/06 07:23:22;;;;;;;5.28;2.88;;;0.20;99.90;;;;;;4991593;28;20125;-79
2023/03/06 07:25:48;;;;;;;4.63;2.88;;;0.20;99.90;;;;;;4991106;28;20502;-81
2023/03/06 07:28:16;;;;;;;4.32;2.92;;;0.20;99.90;;;;;;4991406;28;20130;-82
2023/03/06 07:30:42;;;;;;;7.10;3.80;;;0.20;99.90;;;;;;4991219;28;20050;-77
2023/03/06 07:33:08;;;;;;;5.78;3.15;;;0.30;99.90;;;;;;5005895;28;20042;-83
2023/03/06 07:35:34;;;;;;;4.40;2.58;;;0.30;99.90;;;;;;5008048;28;20567;-79
2023/03/06 07:38:00;;;;;;;4.70;2.63;;;0.30;99.90;;;;;;5012002;28;20113;-80
2023/03/06 07:40:26;;;;;;;5.50;2.38;;;0.30;99.90;;;;;;5005922;28;20043;-80
2023/03/06 07:42:56;;;;;;;6.07;2.88;;;0.40;99.90;;;;;;5006127;28;20129;-79
2023/03/06 07:45:22;;;;;;;5.63;3.40;;;0.40;99.90;;;;;;4994559;28;20045;-78
2023/03/06 07:47:52;;;;;;;5.85;3.58;;;0.40;99.90;;;;;;4993527;28;20514;-79
2023/03/06 07:50:18;;;;;;;6.05;3.38;;;0.50;99.90;;;;;;4982829;28;20578;-80
2023/03/06 07:52:44;;;;;;;5.57;3.05;;;0.50;99.90;;;;;;5010447;28;20049;-80
2023/03/06 07:55:10;;;;;;;5.13;3.17;;;0.60;99.90;;;;;;5010128;28;20038;-79
2023/03/06 07:57:37;;;;;;;5.13;2.90;;;0.70;99.90;;;;;;5010180;28;20092;-82
2023/03/06 08:00:12;;;;;;;4.82;3.28;;;0.70;99.90;;;;;;4991762;28;20046;-80
2023/03/06 08:02:38;;;;;;;4.95;2.83;;;0.60;99.90;;;;;;5005255;28;20053;-83
2023/03/06 08:05:05;;;;;;;5.15;2.70;;;0.90;99.90;;;;;;4990810;28;20398;-84
2023/03/06 08:07:31;;;;;;;5.18;2.58;;;1.00;99.90;;;;;;5005965;28;20826;-82
2023/03/06 08:09:57;;;;;;;6.57;2.35;;;1.00;99.90;;;;;;4989937;28;20046;-86
2023/03/06 08:12:22;;;;;;;4.97;2.40;;;1.20;99.90;;;;;;4972923;28;20055;-80
2023/03/06 08:14:48;;;;;;;4.05;2.15;;;1.20;99.90;;;;;;4990346;28;20193;-79
2023/03/06 08:17:13;;;;;;;4.78;2.00;;;1.30;99.90;;;;;;4995104;28;20451;-85
2023/03/06 08:19:39;;;;;;;3.67;2.05;;;1.40;99.90;;;;;;4996544;28;20030;-82
2023/03/06 08:22:05;;;;;;;3.28;1.90;;;1.60;99.90;;;;;;5005561;28;20057;-80
2023/03/06 08:24:32;;;;;;;5.53;1.85;;;1.60;99.90;;;;;;5009808;28;20050;-87
2023/03/06 08:26:58;;;;;;;9.02;2.55;;;1.70;99.90;;;;;;4998427;28;20249;-81
2023/03/06 08:29:24;;;;;;;4.18;1.90;;;1.80;99.90;;;;;;4979639;28;20129;-88
2023/03/06 08:31:49;;;;;;;3.58;1.90;;;1.90;99.90;;;;;;4979344;28;20078;-84
2023/03/06 08:34:20;;;;;;;6.13;1.88;;;2.00;99.90;;;;;;4963467;28;20472;-87
2023/03/06 08:36:46;;;;;;;3.90;2.08;;;2.00;99.90;;;;;;4979149;28;20050;-82
2023/03/06 08:39:12;;;;;;;5.03;2.10;;;2.10;99.90;;;;;;4979149;28;20393;-88
2023/03/06 08:41:40;;;;;;;5.55;2.20;;;2.10;99.90;;;;;;4979094;28;20482;-86
2023/03/06 08:44:07;;;;;;;3.13;1.73;;;2.20;99.90;;;;;;4996794;28;20478;-81
2023/03/06 08:46:33;;;;;;;4.28;2.00;;;2.30;99.90;;;;;;4963103;28;20062;-81
2023/03/06 08:48:59;;;;;;;5.00;1.98;;;2.40;99.90;;;;;;4978923;28;20046;-84
2023/03/06 08:51:26;;;;;;;3.60;1.92;;;2.60;99.90;;;;;;4997035;28;20050;-83
2023/03/06 08:53:52;;;;;;;7.40;2.33;;;2.70;99.90;;;;;;4979317;28;20047;-86
2023/03/06 08:56:24;;;;;;;8.10;1.73;;;3.10;99.90;;;;;;4979230;28;20064;-84
2023/03/06 08:58:50;;;;;;;5.07;1.80;;;3.10;99.90;;;;;;4997176;28;20042;-83
2023/03/06 09:01:21;;;;;;;2.72;1.40;;;3.30;99.90;;;;;;4995405;28;20041;-87
2023/03/06 09:03:48;;;;;;;4.95;1.50;;;3.50;99.90;;;;;;4997265;28;20040;-86
2023/03/06 09:06:14;;;;;;;4.90;1.95;;;3.60;99.90;;;;;;4987039;28;20065;-86
2023/03/06 09:08:43;;;;;;;10.70;1.73;;;3.80;99.90;;;;;;4997520;28;20039;-84
2023/03/06 09:11:14;;;;;;;3.50;1.20;;;4.10;99.90;;;;;;4997074;28;20108;-86
2023/03/06 09:13:41;;;;;;;5.50;1.52;;;4.20;99.90;;;;;;4979894;28;20504;-85
2023/03/06 09:16:08;;;;;;;5.82;1.75;;;4.30;99.90;;;;;;4996766;28;20177;-86
2023/03/06 09:18:34;;;;;;;4.80;1.80;;;4.40;99.90;;;;;;4979700;28;20046;-85
2023/03/06 09:21:00;;;;;;;2.78;1.20;;;4.60;99.90;;;;;;4961345;28;20053;-85
2023/03/06 09:23:25;;;;;;;5.30;1.35;;;4.60;99.90;;;;;;5012027;28;20050;-84
2023/03/06 09:25:56;;;;;;;5.10;1.23;;;4.70;99.90;;;;;;5011887;28;20038;-86
2023/03/06 09:28:22;;;;;;;5.90;1.55;;;4.90;99.90;;;;;;4960077;28;20049;-84
2023/03/06 09:30:48;;;;;;;2.83;0.90;;;5.00;99.90;;;;;;4976036;28;20761;-84
2023/03/06 09:33:13;;;;;;;9.65;0.80;;;5.20;99.90;;;;;;4976092;28;20042;-83
2023/03/06 09:35:51;;;;;;;3.47;0.70;;;5.30;99.90;;;;;;4975812;28;20058;-87
2023/03/06 09:38:18;;;;;;;5.65;1.20;;;5.40;99.90;;;;;;4960182;28;20046;-84
2023/03/06 09:40:56;;;;;;;5.28;0.73;;;6.30;99.90;;;;;;4993748;28;20398;-88
2023/03/06 09:43:39;;;;;;;4.85;0.85;;;5.90;99.90;;;;;;4976467;28;20367;-85
2023/03/06 09:46:28;;;;;;;5.32;0.80;;;5.70;99.90;;;;;;4959802;28;20050;-87
2023/03/06 09:49:29;;;;;;;5.00;0.82;;;6.00;99.90;;;;;;4993633;28;20069;-83
2023/03/06 09:52:13;;;;;;;5.40;0.80;;;6.30;99.90;;;;;;4976150;28;20137;-83
2023/03/06 09:55:09;;;;;;;4.35;1.23;;;6.40;99.90;;;;;;4981782;28;20121;-83
2023/03/06 09:58:00;;;;;;;6.55;1.08;;;6.60;99.90;;;;;;4994930;28;20133;-83
2023/03/06 10:01:07;;;;;;;6.28;0.70;;;6.70;99.90;;;;;;4952171;29;20063;-83
2023/03/06 10:04:17;;;;;;;6.93;0.77;;;6.90;99.90;;;;;;4932225;28;20063;-83
2023/03/06 10:06:53;;;;;;;4.72;0.47;;;7.00;99.90;;;;;;4932329;29;20084;-83
2023/03/06 10:09:25;;;;;;;3.75;0.50;;;8.00;99.90;;;;;;4900436;29;20425;-80
2023/03/06 10:12:02;;;;;;;4.32;0.60;;;8.30;99.90;;;;;;4924939;29;20062;-84
2023/03/06 10:14:48;;;;;;;2.42;0.55;;;7.60;99.90;;;;;;4912787;29;20088;-81
2023/03/06 10:17:18;;;;;;;;;;;8.20;99.90;;;;;;4897605;29;20560;-80
2023/03/06 10:19:46;;;;;;;5.97;0.50;;;7.70;99.90;;;;;;4912828;29;20019;-82
2023/03/06 10:22:53;;;;;;;4.40;0.70;;;8.80;99.90;;;;;;4897137;29;20067;-86
2023/03/06 10:25:29;;;;;;;2.90;0.68;;;7.80;99.90;;;;;;4894797;29;20059;-85
2023/03/06 10:28:01;;;;;;;4.75;0.70;;;8.00;99.90;;;;;;4912638;29;20048;-85
2023/03/06 10:30:38;;;;;;;2.75;0.60;;;8.30;99.90;;;;;;4897211;29;20052;-80
2023/03/06 10:33:24;;;;;;;2.58;0.52;;;8.10;99.90;;;;;;4881761;29;20147;-80
2023/03/06 10:35:52;;;;;;;5.40;0.57;;;8.00;99.90;;;;;;4893783;29;20139;-83
2023/03/06 10:38:18;;;;;;;3.97;0.70;;;7.90;99.90;;;;;;4913001;29;20078;-81
2023/03/06 10:41:06;;;;;;;4.35;0.60;;;8.50;99.90;;;;;;4967197;28;20133;-82
2023/03/06 10:43:37;;;;;;;2.00;0.50;;;7.60;99.90;;;;;;4972301;28;20133;-79
2023/03/06 10:46:04;;;;;;;2.95;0.75;;;7.50;99.90;;;;;;4974914;28;20100;-78
2023/03/06 10:48:34;;;;;;;3.95;0.57;;;7.70;99.90;;;;;;5010163;28;20044;-85
2023/03/06 10:51:18;;;;;;;2.28;0.70;;;7.10;99.90;;;;;;5006291;28;20120;-85
2023/03/06 10:53:55;;;;;;;3.50;0.47;;;7.10;99.90;;;;;;4974623;28;20057;-84
2023/03/06 10:56:31;;;;;;;5.10;0.70;;;7.00;99.90;;;;;;4991897;28;20058;-80
2023/03/06 10:59:17;;;;;;;5.15;0.60;;;6.70;99.90;;;;;;4974198;28;20045;-81
2023/03/06 11:01:48;;;;;;;3.67;0.60;;;6.90;99.90;;;;;;4989848;28;20068;-79
2023/03/06 11:04:19;;;;;;;5.03;0.80;;;7.20;99.90;;;;;;4991124;28;20383;-80
2023/03/06 11:06:45;;;;;;;6.80;0.93;;;7.10;99.90;;;;;;5002125;28;20050;-78
2023/03/06 11:09:14;;;;;;;2.88;0.60;;;7.10;99.90;;;;;;4977418;28;20058;-79
2023/03/06 11:11:40;;;;;;;2.90;0.77;;;7.00;99.90;;;;;;4976238;28;20129;-79
2023/03/06 11:14:14;;;;;;;2.85;0.70;;;6.90;99.90;;;;;;4991273;28;20133;-82
2023/03/06 11:16:50;;;;;;;7.45;0.93;;;6.70;99.90;;;;;;4973442;28;20092;-79
2023/03/06 11:19:28;;;;;;;0.95;0.38;;;6.50;99.90;;;;;;4991228;28;20086;-83
2023/03/06 11:22:06;;;;;;;6.15;0.70;;;6.30;99.90;;;;;;4998411;28;20049;-78
2023/03/06 11:24:38;;;;;;;2.65;0.40;;;6.30;99.90;;;;;;5011026;28;20046;-78
2023/03/06 11:27:29;;;;;;;4.55;0.80;;;6.20;99.90;;;;;;5011004;28;20034;-80
2023/03/06 11:29:58;;;;;;;1.35;0.60;;;6.60;99.90;;;;;;5025610;28;20505;-79
2023/03/06 11:32:29;;;;;;;3.85;0.60;;;6.80;99.90;;;;;;5005396;28;20103;-79
2023/03/06 11:35:08;;;;;;;3.97;0.60;;;6.80;99.90;;;;;;5010900;28;20669;-79
2023/03/06 11:37:52;;;;;;;4.78;0.73;;;7.00;99.90;;;;;;4993332;28;20061;-79
2023/03/06 11:40:26;;;;;;;2.63;0.38;;;7.00;99.90;;;;;;4992744;28;20064;-78
2023/03/06 11:43:22;;;;;;;1.75;0.52;;;7.40;99.90;;;;;;4994972;28;20054;-79
2023/03/06 11:46:01;;;;;;;2.55;0.50;;;7.60;99.90;;;;;;4949407;29;20063;-76
2023/03/06 11:48:34;;;;;;;1.58;0.40;;;7.40;99.90;;;;;;4949774;29;20105;-79
2023/03/06 11:51:20;;;;;;;3.78;0.60;;;7.40;99.90;;;;;;4948801;28;20698;-83
2023/03/06 11:53:46;;;;;;;1.95;0.50;;;7.30;99.90;;;;;;4949697;28;20059;-78
2023/03/06 11:56:18;;;;;;;4.50;0.80;;;7.10;99.90;;;;;;4949309;28;20113;-79
2023/03/06 11:58:52;;;;;;;3.90;0.40;;;6.90;99.90;;;;;;4934830;28;20047;-78
2023/03/06 12:01:45;;;;;;;7.10;0.50;;;6.70;99.90;;;;;;4968895;28;20050;-78
2023/03/06 12:04:22;;;;;;;6.85;0.68;;;6.80;99.90;;;;;;4952845;28;20146;-77
2023/03/06 12:07:09;;;;;;;3.88;0.95;;;6.70;99.90;;;;;;4968921;28;20057;-79
2023/03/06 12:09:41;;;;;;;2.67;0.50;;;6.60;99.90;;;;;;4950976;28;20056;-78
2023/03/06 12:12:25;;;;;;;4.63;0.50;;;6.50;99.90;;;;;;4949830;29;20174;-78
2023/03/06 12:15:26;;;;;;;4.00;0.60;;;6.40;99.90;;;;;;4949417;29;20641;-78
2023/03/06 12:17:54;;;;;;;4.40;0.40;;;6.40;99.90;;;;;;4929887;29;20316;-79
2023/03/06 12:20:26;;;;;;;3.25;0.47;;;6.30;99.90;;;;;;4914779;29;20499;-78
2023/03/06 12:22:55;;;;;;;3.50;0.50;;;6.30;99.90;;;;;;4923959;29;20061;-78
2023/03/06 12:25:38;;;;;;;3.25;0.63;;;6.40;99.90;;;;;;4933167;29;20094;-77
2023/03/06 12:28:09;;;;;;;3.13;0.40;;;6.30;99.90;;;;;;4935521;28;20058;-77
2023/03/06 12:30:37;;;;;;;2.83;0.40;;;6.30;99.90;;;;;;4951885;28;20054;-75
2023/03/06 12:33:23;;;;;;;1.25;0.60;;;6.40;99.90;;;;;;4949268;29;20443;-77
2023/03/06 12:36:14;;;;;;;7.55;0.63;;;6.50;99.90;;;;;;4948831;28;20059;-77
2023/03/06 12:38:54;;;;;;;4.10;0.50;;;6.70;99.90;;;;;;4948053;29;20066;-76
2023/03/06 12:41:42;;;;;;;0.75;0.30;;;6.60;99.90;;;;;;4940170;28;20206;-76
2023/03/06 12:44:17;;;;;;;1.65;0.30;;;7.00;99.90;;;;;;4968335;28;20055;-76
2023/03/06 12:46:52;;;;;;;3.53;0.43;;;6.80;99.90;;;;;;4968057;28;20418;-77
2023/03/06 12:49:28;;;;;;;;;;;6.80;99.90;;;;;;4952933;28;20070;-76
2023/03/06 12:51:55;;;;;;;2.70;0.55;;;6.90;99.90;;;;;;4966122;28;19926;-76
2023/03/06 12:54:26;;;;;;;2.30;0.40;;;6.80;99.90;;;;;;4967326;28;20055;-82
2023/03/06 12:56:52;;;;;;;3.35;0.60;;;6.80;99.90;;;;;;4985636;28;20054;-79
2023/03/06 12:59:43;;;;;;;2.95;0.43;;;6.90;99.90;;;;;;4970643;28;20727;-81
2023/03/06 13:02:27;;;;;;;4.22;0.60;;;6.90;99.90;;;;;;4980985;28;20057;-84
2023/03/06 13:05:08;;;;;;;3.53;0.70;;;7.10;99.90;;;;;;4992139;28;20401;-78
2023/03/06 13:08:02;;;;;;;4.97;0.50;;;7.20;99.90;;;;;;4990897;28;20046;-76
2023/03/06 13:10:32;;;;;;;3.03;0.50;;;7.10;99.90;;;;;;5007573;28;20054;-76